createdAt,value
2022-09-28T00:00:15.925Z,12.13
2022-09-28T00:01:15.931Z,12.04
2022-09-28T00:02:16.011Z,12.03
2022-09-28T00:03:15.894Z,12.04
2022-09-28T00:04:15.900Z,11.97
2022-09-28T00:05:15.868Z,11.99
2022-09-28T00:06:15.864Z,11.95
2022-09-28T00:07:15.878Z,11.99
2022-09-28T00:08:15.875Z,12.04
2022-09-28T00:09:15.853Z,12.02
2022-09-28T00:10:15.812Z,12.00
2022-09-28T00:11:15.812Z,11.99
2022-09-28T00:12:15.866Z,12.00
2022-09-28T00:13:15.805Z,12.00
2022-09-28T00:14:15.777Z,11.88
2022-09-28T00:15:15.762Z,11.97
2022-09-28T00:16:15.825Z,11.87
2022-09-28T00:17:15.756Z,11.83
2022-09-28T00:18:15.740Z,11.88
2022-09-28T00:19:15.775Z,11.83
2022-09-28T00:20:15.744Z,11.80
2022-09-28T00:21:15.704Z,11.83
2022-09-28T00:22:15.685Z,11.87
2022-09-28T00:23:15.667Z,11.86
2022-09-28T00:24:15.797Z,11.70
2022-09-28T00:25:15.667Z,11.73
2022-09-28T00:26:15.640Z,11.73
2022-09-28T00:27:15.649Z,11.77
2022-09-28T00:28:15.629Z,11.75
2022-09-28T00:29:15.651Z,11.69
2022-09-28T00:30:15.608Z,11.69
2022-09-28T00:31:15.621Z,11.65
2022-09-28T00:32:15.570Z,11.70
2022-09-28T00:33:15.588Z,11.69
2022-09-28T00:34:15.570Z,11.65
2022-09-28T00:35:15.547Z,11.69
2022-09-28T00:36:15.533Z,11.77
2022-09-28T00:37:15.515Z,11.69
2022-09-28T00:38:15.506Z,11.83
2022-09-28T00:39:15.568Z,11.78
2022-09-28T00:40:15.625Z,11.88
2022-09-28T00:41:15.507Z,11.90
2022-09-28T00:42:15.476Z,11.94
2022-09-28T00:43:15.447Z,11.95
2022-09-28T00:44:15.435Z,12.00
2022-09-28T00:45:15.561Z,12.07
2022-09-28T00:46:15.505Z,11.95
2022-09-28T00:47:15.415Z,11.94
2022-09-28T00:48:15.389Z,12.00
2022-09-28T00:49:15.449Z,11.97
2022-09-28T00:50:15.406Z,12.09
2022-09-28T00:51:15.398Z,11.97
2022-09-28T00:52:15.347Z,11.94
2022-09-28T00:53:15.360Z,12.02
2022-09-28T00:54:15.323Z,11.88
2022-09-28T00:55:15.331Z,12.02
2022-09-28T00:56:15.325Z,11.97
2022-09-28T00:57:15.313Z,11.95
2022-09-28T00:58:15.292Z,11.95
2022-09-28T00:59:15.291Z,12.02
2022-09-28T01:00:15.304Z,12.00
2022-09-28T01:01:15.350Z,12.00
2022-09-28T01:02:15.341Z,12.04
2022-09-28T01:03:15.224Z,11.94
2022-09-28T01:04:15.225Z,12.00
2022-09-28T01:05:15.227Z,12.00
2022-09-28T01:06:15.220Z,11.95
2022-09-28T01:07:15.238Z,11.91
2022-09-28T01:08:15.190Z,11.90
2022-09-28T01:09:15.203Z,11.88
2022-09-28T01:10:15.157Z,11.88
2022-09-28T01:11:15.136Z,11.88
2022-09-28T01:12:15.299Z,11.81
2022-09-28T01:13:15.116Z,11.80
2022-09-28T01:14:15.132Z,11.77
2022-09-28T01:15:15.120Z,11.73
2022-09-28T01:16:15.127Z,11.69
2022-09-28T01:17:15.092Z,11.69
2022-09-28T01:18:15.055Z,11.65
2022-09-28T01:19:15.133Z,11.72
2022-09-28T01:20:15.033Z,11.63
2022-09-28T01:21:15.027Z,11.75
2022-09-28T01:22:15.059Z,11.78
2022-09-28T01:23:15.003Z,11.73
2022-09-28T01:24:14.990Z,11.72
2022-09-28T01:25:15.003Z,11.70
2022-09-28T01:26:14.993Z,11.80
2022-09-28T01:27:14.962Z,11.84
2022-09-28T01:28:15.002Z,11.80
2022-09-28T01:29:15.007Z,11.73
2022-09-28T01:30:14.921Z,11.83
2022-09-28T01:31:15.025Z,11.84
2022-09-28T01:32:14.934Z,11.83
2022-09-28T01:33:14.904Z,11.80
2022-09-28T01:34:14.887Z,11.72
2022-09-28T01:35:14.950Z,11.78
2022-09-28T01:36:14.859Z,11.80
2022-09-28T01:37:14.864Z,11.72
2022-09-28T01:38:14.832Z,11.80
2022-09-28T01:39:14.938Z,11.78
2022-09-28T01:40:15.007Z,11.78
2022-09-28T01:41:14.803Z,11.77
2022-09-28T01:42:14.831Z,11.78
2022-09-28T01:43:14.804Z,11.88
2022-09-28T01:44:14.832Z,11.87
2022-09-28T01:45:14.780Z,11.80
2022-09-28T01:46:14.865Z,11.83
2022-09-28T01:47:14.735Z,11.75
2022-09-28T01:48:14.726Z,11.77
2022-09-28T01:49:14.858Z,11.84
2022-09-28T01:50:14.712Z,11.73
2022-09-28T01:51:14.700Z,11.66
2022-09-28T01:52:14.681Z,11.70
2022-09-28T01:53:14.676Z,11.66
2022-09-28T01:54:14.674Z,11.52
2022-09-28T01:55:14.671Z,11.66
2022-09-28T01:56:14.634Z,11.65
2022-09-28T01:57:14.622Z,11.65
2022-09-28T01:58:14.630Z,11.69
2022-09-28T01:59:14.723Z,11.66
2022-09-28T02:00:14.622Z,11.60
2022-09-28T02:01:14.670Z,11.51
2022-09-28T02:02:14.641Z,11.52
2022-09-28T02:03:14.559Z,11.54
2022-09-28T02:04:14.555Z,11.48
2022-09-28T02:05:14.534Z,11.43
2022-09-28T02:06:14.522Z,11.47
2022-09-28T02:07:14.518Z,11.48
2022-09-28T02:08:14.510Z,11.47
2022-09-28T02:09:14.545Z,11.43
2022-09-28T02:10:14.490Z,11.55
2022-09-28T02:11:14.468Z,11.47
2022-09-28T02:12:14.464Z,11.52
2022-09-28T02:13:14.465Z,11.60
2022-09-28T02:14:14.453Z,11.52
2022-09-28T02:15:14.435Z,11.52
2022-09-28T02:16:14.462Z,11.55
2022-09-28T02:17:14.415Z,11.50
2022-09-28T02:18:14.404Z,11.55
2022-09-28T02:19:14.465Z,11.55
2022-09-28T02:20:14.367Z,11.48
2022-09-28T02:21:14.396Z,11.55
2022-09-28T02:22:14.341Z,11.48
2022-09-28T02:23:14.358Z,11.44
2022-09-28T02:24:16.272Z,11.45
2022-09-28T02:25:14.313Z,11.40
2022-09-28T02:26:14.297Z,11.40
2022-09-28T02:27:14.286Z,11.40
2022-09-28T02:28:14.275Z,11.26
2022-09-28T02:29:14.320Z,11.29
2022-09-28T02:30:14.256Z,11.32
2022-09-28T02:31:14.353Z,11.26
2022-09-28T02:32:14.248Z,11.30
2022-09-28T02:33:14.225Z,11.27
2022-09-28T02:34:14.232Z,11.37
2022-09-28T02:35:14.209Z,11.35
2022-09-28T02:36:14.233Z,11.27
2022-09-28T02:37:14.185Z,11.26
2022-09-28T02:38:14.163Z,11.18
2022-09-28T02:39:14.225Z,11.19
2022-09-28T02:40:14.163Z,11.04
2022-09-28T02:41:14.141Z,11.08
2022-09-28T02:42:14.131Z,11.07
2022-09-28T02:43:14.108Z,10.99
2022-09-28T02:44:14.112Z,10.99
2022-09-28T02:45:14.085Z,11.11
2022-09-28T02:46:14.158Z,11.10
2022-09-28T02:47:14.071Z,11.02
2022-09-28T02:48:14.071Z,11.05
2022-09-28T02:49:22.334Z,11.19
2022-09-28T02:50:15.045Z,11.12
2022-09-28T02:51:14.049Z,11.08
2022-09-28T02:52:14.010Z,11.02
2022-09-28T02:53:14.002Z,11.05
2022-09-28T02:54:18.573Z,11.05
2022-09-28T02:55:13.981Z,11.02
2022-09-28T02:56:13.991Z,10.94
2022-09-28T02:57:13.957Z,10.89
2022-09-28T02:58:13.943Z,10.93
2022-09-28T02:59:14.032Z,10.93
2022-09-28T03:00:13.919Z,10.90
2022-09-28T03:01:14.036Z,10.87
2022-09-28T03:02:13.924Z,10.79
2022-09-28T03:03:13.894Z,10.79
2022-09-28T03:04:13.928Z,10.92
2022-09-28T03:05:13.868Z,10.90
2022-09-28T03:06:13.852Z,10.89
2022-09-28T03:07:13.854Z,10.79
2022-09-28T03:08:13.831Z,10.86
2022-09-28T03:09:13.940Z,10.82
2022-09-28T03:10:13.808Z,10.82
2022-09-28T03:11:13.821Z,10.75
2022-09-28T03:12:13.792Z,10.75
2022-09-28T03:13:13.773Z,10.81
2022-09-28T03:14:13.765Z,10.78
2022-09-28T03:15:13.778Z,10.71
2022-09-28T03:16:13.827Z,10.71
2022-09-28T03:17:13.752Z,10.78
2022-09-28T03:18:13.760Z,10.84
2022-09-28T03:19:13.823Z,10.81
2022-09-28T03:20:13.718Z,10.87
2022-09-28T03:21:13.690Z,10.82
2022-09-28T03:22:13.686Z,10.79
2022-09-28T03:23:24.896Z,10.89
2022-09-28T03:24:14.662Z,10.84
2022-09-28T03:25:13.641Z,10.93
2022-09-28T03:26:13.636Z,10.92
2022-09-28T03:27:13.645Z,10.92
2022-09-28T03:28:13.620Z,11.02
2022-09-28T03:29:13.709Z,11.00
2022-09-28T03:30:13.606Z,11.02
2022-09-28T03:31:13.651Z,11.08
2022-09-28T03:32:13.676Z,11.15
2022-09-28T03:33:13.551Z,11.18
2022-09-28T03:34:13.548Z,11.18
2022-09-28T03:35:13.527Z,11.25
2022-09-28T03:36:13.537Z,11.22
2022-09-28T03:37:13.509Z,11.22
2022-09-28T03:38:13.527Z,11.25
2022-09-28T03:39:13.589Z,11.23
2022-09-28T03:40:13.487Z,11.26
2022-09-28T03:41:13.490Z,11.19
2022-09-28T03:42:13.451Z,11.19
2022-09-28T03:43:13.441Z,11.12
2022-09-28T03:44:13.448Z,11.22
2022-09-28T03:45:13.437Z,11.23
2022-09-28T03:46:13.451Z,11.27
2022-09-28T03:47:13.400Z,11.27
2022-09-28T03:48:13.384Z,11.26
2022-09-28T03:49:13.487Z,11.23
2022-09-28T03:50:13.364Z,11.25
2022-09-28T03:51:13.368Z,11.27
2022-09-28T03:52:13.361Z,11.26
2022-09-28T03:53:13.348Z,11.32
2022-09-28T03:54:13.325Z,11.29
2022-09-28T03:55:13.317Z,11.27
2022-09-28T03:56:13.332Z,11.40
2022-09-28T03:57:13.296Z,11.41
2022-09-28T03:58:13.276Z,11.41
2022-09-28T03:59:13.299Z,11.45
2022-09-28T04:00:13.253Z,11.43
2022-09-28T04:01:16.857Z,11.43
2022-09-28T04:02:13.291Z,11.43
2022-09-28T04:03:13.239Z,11.51
2022-09-28T04:04:13.208Z,11.48
2022-09-28T04:05:13.194Z,11.54
2022-09-28T04:06:13.464Z,11.52
2022-09-28T04:07:13.172Z,11.50
2022-09-28T04:08:13.189Z,11.52
2022-09-28T04:09:13.178Z,11.59
2022-09-28T04:10:13.143Z,11.52
2022-09-28T04:11:13.149Z,11.55
2022-09-28T04:12:13.131Z,11.60
2022-09-28T04:13:13.105Z,11.55
2022-09-28T04:14:13.120Z,11.62
2022-09-28T04:15:13.100Z,11.65
2022-09-28T04:16:13.097Z,11.57
2022-09-28T04:17:13.087Z,11.65
2022-09-28T04:18:13.065Z,11.63
2022-09-28T04:19:13.039Z,11.65
2022-09-28T04:20:13.036Z,11.59
2022-09-28T04:21:13.016Z,11.59
2022-09-28T04:22:13.023Z,11.57
2022-09-28T04:23:12.997Z,11.57
2022-09-28T04:24:13.003Z,11.54
2022-09-28T04:25:13.006Z,11.63
2022-09-28T04:26:12.973Z,11.65
2022-09-28T04:27:12.979Z,11.59
2022-09-28T04:28:12.937Z,11.60
2022-09-28T04:29:12.939Z,11.68
2022-09-28T04:30:12.922Z,11.60
2022-09-28T04:31:12.994Z,11.52
2022-09-28T04:32:12.903Z,11.57
2022-09-28T04:33:12.895Z,11.55
2022-09-28T04:34:12.878Z,11.54
2022-09-28T04:35:12.878Z,11.51
2022-09-28T04:36:12.853Z,11.54
2022-09-28T04:37:12.857Z,11.55
2022-09-28T04:38:12.867Z,11.54
2022-09-28T04:39:12.826Z,11.55
2022-09-28T04:40:12.823Z,11.57
2022-09-28T04:41:12.805Z,11.51
2022-09-28T04:42:12.784Z,11.62
2022-09-28T04:43:12.801Z,11.68
2022-09-28T04:44:12.761Z,11.65
2022-09-28T04:45:12.747Z,11.70
2022-09-28T04:46:12.856Z,11.66
2022-09-28T04:47:12.742Z,11.68
2022-09-28T04:48:12.724Z,11.65
2022-09-28T04:49:12.732Z,11.63
2022-09-28T04:50:12.704Z,11.69
2022-09-28T04:51:12.686Z,11.65
2022-09-28T04:52:18.023Z,11.77
2022-09-28T04:53:13.668Z,11.69
2022-09-28T04:54:12.657Z,11.69
2022-09-28T04:55:12.652Z,11.68
2022-09-28T04:56:12.646Z,11.63
2022-09-28T04:57:12.651Z,11.72
2022-09-28T04:58:12.610Z,11.69
2022-09-28T04:59:12.595Z,11.63
2022-09-28T05:00:12.604Z,11.69
2022-09-28T05:01:12.629Z,11.62
2022-09-28T05:02:12.630Z,11.65
2022-09-28T05:03:12.567Z,11.66
2022-09-28T05:04:12.547Z,11.73
2022-09-28T05:05:12.534Z,11.65
2022-09-28T05:06:12.544Z,11.66
2022-09-28T05:07:12.530Z,11.75
2022-09-28T05:08:12.509Z,11.69
2022-09-28T05:09:12.488Z,11.83
2022-09-28T05:10:12.494Z,11.83
2022-09-28T05:11:12.465Z,11.90
2022-09-28T05:12:12.483Z,11.90
2022-09-28T05:13:12.473Z,11.87
2022-09-28T05:14:12.427Z,11.88
2022-09-28T05:15:12.444Z,11.88
2022-09-28T05:16:12.423Z,11.87
2022-09-28T05:17:12.405Z,11.90
2022-09-28T05:18:12.418Z,11.87
2022-09-28T05:19:12.403Z,11.83
2022-09-28T05:20:12.362Z,11.87
2022-09-28T05:21:12.358Z,11.91
2022-09-28T05:22:12.353Z,11.90
2022-09-28T05:23:12.383Z,11.90
2022-09-28T05:24:12.360Z,11.87
2022-09-28T05:25:12.304Z,11.88
2022-09-28T05:26:12.295Z,11.91
2022-09-28T05:27:12.282Z,12.02
2022-09-28T05:28:12.301Z,11.94
2022-09-28T05:29:12.273Z,11.84
2022-09-28T05:30:12.283Z,11.94
2022-09-28T05:31:12.262Z,11.99
2022-09-28T05:32:12.317Z,11.94
2022-09-28T05:33:12.216Z,11.99
2022-09-28T05:34:12.215Z,11.95
2022-09-28T05:35:12.213Z,11.90
2022-09-28T05:36:12.220Z,11.91
2022-09-28T05:37:12.177Z,11.95
2022-09-28T05:38:12.174Z,11.99
2022-09-28T05:39:12.149Z,12.03
2022-09-28T05:40:12.158Z,11.95
2022-09-28T05:41:12.215Z,11.94
2022-09-28T05:42:12.120Z,12.07
2022-09-28T05:43:12.129Z,12.07
2022-09-28T05:44:12.131Z,12.02
2022-09-28T05:45:12.090Z,12.04
2022-09-28T05:46:12.130Z,12.02
2022-09-28T05:47:12.062Z,12.00
2022-09-28T05:48:12.053Z,12.02
2022-09-28T05:49:12.115Z,11.97
2022-09-28T05:50:12.029Z,12.00
2022-09-28T05:51:12.027Z,12.00
2022-09-28T05:52:12.021Z,11.99
2022-09-28T05:53:11.995Z,11.97
2022-09-28T05:54:11.986Z,11.99
2022-09-28T05:55:12.000Z,12.00
2022-09-28T05:56:11.962Z,12.09
2022-09-28T05:57:11.975Z,12.04
2022-09-28T05:58:11.963Z,12.07
2022-09-28T05:59:11.971Z,12.12
2022-09-28T06:00:11.939Z,12.09
2022-09-28T06:01:11.993Z,12.06
2022-09-28T06:02:12.002Z,12.07
2022-09-28T06:03:11.897Z,12.06
2022-09-28T06:04:11.880Z,12.09
2022-09-28T06:05:11.866Z,12.12
2022-09-28T06:06:11.875Z,12.10
2022-09-28T06:07:11.869Z,12.13
2022-09-28T06:08:11.839Z,12.21
2022-09-28T06:09:11.831Z,12.17
2022-09-28T06:10:11.820Z,12.18
2022-09-28T06:11:11.797Z,12.17
2022-09-28T06:12:11.884Z,12.15
2022-09-28T06:13:11.809Z,12.20
2022-09-28T06:14:11.775Z,12.21
2022-09-28T06:15:11.774Z,12.13
2022-09-28T06:16:11.815Z,12.15
2022-09-28T06:17:11.752Z,12.10
2022-09-28T06:18:11.741Z,12.10
2022-09-28T06:19:11.734Z,12.12
2022-09-28T06:20:11.705Z,12.13
2022-09-28T06:21:11.718Z,12.22
2022-09-28T06:22:11.677Z,12.15
2022-09-28T06:23:11.665Z,12.12
2022-09-28T06:24:11.690Z,12.18
2022-09-28T06:25:11.646Z,12.20
2022-09-28T06:26:11.657Z,12.13
2022-09-28T06:27:11.657Z,12.13
2022-09-28T06:28:11.611Z,12.12
2022-09-28T06:29:14.762Z,12.22
2022-09-28T06:30:11.594Z,12.15
2022-09-28T06:31:11.682Z,12.10
2022-09-28T06:32:11.608Z,12.13
2022-09-28T06:33:11.595Z,12.15
2022-09-28T06:34:11.562Z,12.17
2022-09-28T06:35:11.542Z,12.20
2022-09-28T06:36:11.534Z,12.21
2022-09-28T06:37:11.538Z,12.17
2022-09-28T06:38:11.506Z,12.17
2022-09-28T06:39:11.487Z,12.17
2022-09-28T06:40:11.477Z,12.21
2022-09-28T06:41:11.465Z,12.29
2022-09-28T06:42:11.484Z,12.18
2022-09-28T06:43:11.462Z,12.29
2022-09-28T06:44:11.439Z,12.18
2022-09-28T06:45:11.425Z,12.22
2022-09-28T06:46:11.448Z,12.25
2022-09-28T06:47:11.429Z,12.27
2022-09-28T06:48:11.410Z,12.27
2022-09-28T06:49:12.723Z,12.29
2022-09-28T06:50:11.377Z,12.20
2022-09-28T06:51:11.357Z,12.35
2022-09-28T06:52:11.345Z,12.20
2022-09-28T06:53:11.337Z,12.20
2022-09-28T06:54:11.422Z,12.13
2022-09-28T06:55:11.323Z,12.15
2022-09-28T06:56:11.328Z,12.22
2022-09-28T06:57:11.302Z,12.17
2022-09-28T06:58:11.283Z,12.12
2022-09-28T06:59:11.273Z,12.13
2022-09-28T07:00:11.270Z,12.13
2022-09-28T07:01:11.294Z,12.22
2022-09-28T07:02:11.290Z,12.18
2022-09-28T07:03:11.226Z,12.25
2022-09-28T07:04:11.298Z,12.28
2022-09-28T07:05:11.241Z,12.31
2022-09-28T07:06:11.207Z,12.27
2022-09-28T07:07:11.214Z,12.31
2022-09-28T07:08:11.191Z,12.28
2022-09-28T07:09:31.919Z,12.35
2022-09-28T07:10:11.147Z,12.29
2022-09-28T07:11:11.257Z,12.36
2022-09-28T07:12:11.160Z,12.28
2022-09-28T07:13:33.954Z,12.32
2022-09-28T07:14:18.792Z,12.37
2022-09-28T07:15:11.168Z,12.27
2022-09-28T07:16:11.203Z,12.29
2022-09-28T07:17:14.062Z,12.25
2022-09-28T07:18:11.129Z,12.25
2022-09-28T07:19:11.056Z,12.24
2022-09-28T07:20:18.031Z,12.28
2022-09-28T07:21:19.468Z,12.27
2022-09-28T07:22:13.954Z,12.28
2022-09-28T07:23:19.123Z,12.28
2022-09-28T07:24:11.023Z,12.27
2022-09-28T07:25:10.979Z,12.25
2022-09-28T07:26:11.018Z,12.28
2022-09-28T07:27:10.981Z,12.29
2022-09-28T07:28:10.975Z,12.25
2022-09-28T07:29:10.943Z,12.25
2022-09-28T07:30:11.000Z,12.36
2022-09-28T07:31:11.125Z,12.29
2022-09-28T07:32:10.908Z,12.29
2022-09-28T07:33:10.923Z,12.21
2022-09-28T07:34:10.941Z,12.31
2022-09-28T07:35:10.872Z,12.22
2022-09-28T07:36:10.904Z,12.28
2022-09-28T07:37:10.853Z,12.29
2022-09-28T07:38:10.835Z,12.32
2022-09-28T07:39:10.886Z,12.37
2022-09-28T07:40:10.930Z,12.37
2022-09-28T07:41:10.865Z,12.36
2022-09-28T07:42:10.804Z,12.39
2022-09-28T07:43:10.808Z,12.40
2022-09-28T07:44:10.910Z,12.39
2022-09-28T07:45:10.821Z,12.36
2022-09-28T07:46:10.828Z,12.39
2022-09-28T07:47:10.745Z,12.37
2022-09-28T07:49:12.386Z,12.43
2022-09-28T07:50:10.907Z,12.40
2022-09-28T07:51:10.711Z,12.40
2022-09-28T07:52:10.699Z,12.36
2022-09-28T07:53:10.681Z,12.29
2022-09-28T07:54:10.687Z,12.36
2022-09-28T07:55:10.704Z,12.39
2022-09-28T07:56:10.645Z,12.37
2022-09-28T07:57:10.647Z,12.35
2022-09-28T07:58:10.615Z,12.36
2022-09-28T07:59:10.748Z,12.49
2022-09-28T08:00:10.616Z,12.46
2022-09-28T08:01:10.830Z,12.40
2022-09-28T08:02:10.635Z,12.43
2022-09-28T08:03:10.585Z,12.46
2022-09-28T08:04:10.646Z,12.49
2022-09-28T08:05:10.553Z,12.43
2022-09-28T08:06:10.527Z,12.45
2022-09-28T08:07:10.523Z,12.45
2022-09-28T08:08:10.525Z,12.49
2022-09-28T08:09:10.601Z,12.39
2022-09-28T08:10:10.540Z,12.35
2022-09-28T08:11:10.497Z,12.42
2022-09-28T08:12:10.470Z,12.36
2022-09-28T08:13:10.450Z,12.39
2022-09-28T08:14:10.510Z,12.28
2022-09-28T08:15:10.472Z,12.35
2022-09-28T08:16:10.433Z,12.35
2022-09-28T08:17:10.439Z,12.24
2022-09-28T08:18:10.407Z,12.28
2022-09-28T08:19:10.486Z,12.25
2022-09-28T08:20:10.482Z,12.37
2022-09-28T08:21:10.361Z,12.25
2022-09-28T08:22:10.363Z,12.40
2022-09-28T08:23:10.371Z,12.36
2022-09-28T08:24:10.462Z,12.36
2022-09-28T08:25:10.353Z,12.39
2022-09-28T08:26:15.219Z,12.37
2022-09-28T08:27:10.324Z,12.35
2022-09-28T08:28:10.301Z,12.27
2022-09-28T08:29:10.295Z,12.27
2022-09-28T08:30:10.366Z,12.20
2022-09-28T08:31:10.322Z,12.25
2022-09-28T08:32:10.239Z,12.22
2022-09-28T08:33:10.282Z,12.17
2022-09-28T08:34:10.265Z,12.25
2022-09-28T08:35:10.207Z,12.17
2022-09-28T08:36:10.258Z,12.09
2022-09-28T08:37:10.191Z,12.10
2022-09-28T08:38:10.255Z,12.10
2022-09-28T08:39:10.170Z,12.15
2022-09-28T08:40:10.247Z,12.07
2022-09-28T08:41:10.146Z,11.73
2022-09-28T08:42:10.150Z,11.73
2022-09-28T08:43:10.186Z,11.72
2022-09-28T08:44:10.208Z,11.80
2022-09-28T08:45:10.109Z,11.78
2022-09-28T08:46:10.144Z,11.81
2022-09-28T08:47:10.111Z,11.86
2022-09-28T08:48:10.064Z,11.91
2022-09-28T08:49:26.385Z,11.75
2022-09-28T08:50:11.049Z,11.73
2022-09-28T08:51:10.036Z,11.72
2022-09-28T08:52:10.051Z,11.72
2022-09-28T08:53:10.052Z,11.84
2022-09-28T08:54:11.876Z,11.81
2022-09-28T08:55:10.007Z,11.86
2022-09-28T08:56:09.992Z,11.91
2022-09-28T08:57:09.990Z,11.94
2022-09-28T08:58:09.954Z,11.95
2022-09-28T08:59:09.982Z,11.97
2022-09-28T09:00:11.813Z,11.97
2022-09-28T09:01:09.988Z,12.02
2022-09-28T09:02:09.989Z,12.00
2022-09-28T09:03:09.915Z,12.09
2022-09-28T09:04:09.893Z,12.13
2022-09-28T09:05:09.895Z,12.13
2022-09-28T09:06:09.869Z,12.15
2022-09-28T09:07:09.854Z,12.21
2022-09-28T09:08:09.867Z,12.31
2022-09-28T09:09:09.831Z,12.29
2022-09-28T09:10:09.832Z,12.29
2022-09-28T09:11:09.830Z,12.37
2022-09-28T09:12:09.824Z,12.37
2022-09-28T09:13:09.822Z,12.35
2022-09-28T09:14:09.788Z,12.39
2022-09-28T09:15:09.765Z,12.42
2022-09-28T09:16:09.798Z,12.39
2022-09-28T09:17:09.749Z,12.36
2022-09-28T09:18:09.738Z,12.32
2022-09-28T09:19:09.743Z,12.25
2022-09-28T09:20:09.714Z,12.31
2022-09-28T09:21:09.724Z,12.31
2022-09-28T09:22:09.725Z,12.37
2022-09-28T09:23:09.734Z,12.42
2022-09-28T09:24:09.665Z,12.42
2022-09-28T09:25:09.657Z,12.49
2022-09-28T09:26:09.659Z,12.53
2022-09-28T09:27:09.657Z,12.36
2022-09-28T09:28:09.647Z,12.42
2022-09-28T09:29:09.614Z,12.40
2022-09-28T09:30:09.718Z,12.49
2022-09-28T09:31:09.734Z,12.43
2022-09-28T09:32:09.588Z,12.32
2022-09-28T09:33:09.601Z,12.46
2022-09-28T09:34:09.648Z,12.55
2022-09-28T09:35:09.566Z,12.49
2022-09-28T09:36:09.571Z,12.49
2022-09-28T09:37:09.529Z,12.49
2022-09-28T09:38:09.537Z,12.58
2022-09-28T09:39:09.500Z,12.60
2022-09-28T09:40:09.489Z,12.60
2022-09-28T09:41:09.623Z,12.64
2022-09-28T09:42:09.498Z,12.70
2022-09-28T09:43:09.476Z,12.75
2022-09-28T09:44:09.671Z,12.78
2022-09-28T09:45:10.262Z,12.85
2022-09-28T09:46:09.450Z,12.82
2022-09-28T09:47:10.765Z,12.83
2022-09-28T09:48:09.401Z,12.80
2022-09-28T09:49:09.415Z,12.83
2022-09-28T09:50:09.414Z,12.86
2022-09-28T09:51:09.367Z,12.93
2022-09-28T09:52:09.359Z,12.87
2022-09-28T09:53:09.377Z,12.91
2022-09-28T09:54:09.375Z,12.95
2022-09-28T09:55:09.352Z,12.91
2022-09-28T09:56:09.312Z,12.91
2022-09-28T09:57:09.305Z,12.98
2022-09-28T09:58:09.295Z,12.95
2022-09-28T09:59:09.295Z,12.98
2022-09-28T10:00:09.303Z,13.03
2022-09-28T10:01:09.372Z,13.12
2022-09-28T10:02:11.769Z,13.11
2022-09-28T10:03:09.253Z,13.16
2022-09-28T10:04:09.245Z,13.13
2022-09-28T10:05:09.216Z,13.15
2022-09-28T10:06:09.237Z,13.28
2022-09-28T10:07:09.228Z,13.30
2022-09-28T10:08:09.180Z,13.38
2022-09-28T10:09:09.168Z,13.41
2022-09-28T10:10:09.171Z,13.47
2022-09-28T10:11:09.160Z,13.42
2022-09-28T10:12:09.169Z,13.52
2022-09-28T10:13:09.157Z,13.60
2022-09-28T10:14:09.157Z,13.59
2022-09-28T10:15:09.112Z,13.67
2022-09-28T10:16:09.138Z,13.62
2022-09-28T10:17:09.183Z,13.65
2022-09-28T10:18:09.104Z,13.60
2022-09-28T10:19:09.059Z,13.62
2022-09-28T10:20:09.049Z,13.63
2022-09-28T10:21:09.046Z,13.56
2022-09-28T10:22:09.073Z,13.67
2022-09-28T10:23:09.034Z,13.56
2022-09-28T10:24:09.025Z,13.63
2022-09-28T10:25:09.040Z,13.49
2022-09-28T10:26:08.986Z,13.52
2022-09-28T10:27:08.981Z,13.54
2022-09-28T10:28:09.012Z,13.47
2022-09-28T10:29:08.955Z,13.42
2022-09-28T10:30:08.961Z,13.31
2022-09-28T10:32:08.936Z,13.16
2022-09-28T10:33:08.936Z,13.11
2022-09-28T10:34:08.895Z,12.97
2022-09-28T10:35:08.891Z,12.94
2022-09-28T10:36:08.899Z,12.80
2022-09-28T10:37:08.911Z,12.68
2022-09-28T10:38:08.867Z,12.68
2022-09-28T10:39:08.869Z,12.67
2022-09-28T10:40:08.856Z,12.67
2022-09-28T10:41:08.891Z,12.75
2022-09-28T10:42:08.803Z,12.62
2022-09-28T10:43:08.832Z,12.54
2022-09-28T10:44:08.906Z,12.61
2022-09-28T10:45:08.876Z,12.57
2022-09-28T10:46:08.827Z,12.43
2022-09-28T10:47:08.758Z,12.42
2022-09-28T10:48:08.757Z,12.47
2022-09-28T10:49:08.785Z,12.55
2022-09-28T10:50:08.730Z,12.43
2022-09-28T10:51:08.711Z,12.43
2022-09-28T10:52:08.725Z,12.39
2022-09-28T10:53:08.717Z,12.42
2022-09-28T10:54:08.679Z,12.39
2022-09-28T10:55:08.683Z,12.32
2022-09-28T10:56:08.683Z,12.39
2022-09-28T10:57:13.322Z,12.49
2022-09-28T10:58:08.653Z,12.46
2022-09-28T10:59:08.702Z,12.46
2022-09-28T11:00:08.612Z,12.54
2022-09-28T11:01:08.665Z,12.49
2022-09-28T11:02:08.644Z,12.47
2022-09-28T11:03:08.593Z,12.40
2022-09-28T11:04:08.611Z,12.54
2022-09-28T11:05:08.569Z,12.42
2022-09-28T11:06:08.550Z,12.49
2022-09-28T11:07:08.529Z,12.53
2022-09-28T11:08:08.527Z,12.54
2022-09-28T11:09:08.533Z,12.61
2022-09-28T11:10:08.554Z,12.70
2022-09-28T11:11:08.502Z,12.75
2022-09-28T11:12:08.509Z,12.68
2022-09-28T11:13:08.462Z,12.70
2022-09-28T11:14:08.472Z,12.72
2022-09-28T11:15:09.219Z,12.70
2022-09-28T11:16:08.450Z,12.80
2022-09-28T11:17:08.506Z,12.68
2022-09-28T11:18:08.421Z,12.64
2022-09-28T11:19:08.485Z,12.68
2022-09-28T11:20:08.401Z,12.79
2022-09-28T11:21:11.831Z,12.80
2022-09-28T11:22:11.218Z,12.80
2022-09-28T11:23:08.353Z,12.87
2022-09-28T11:24:08.362Z,12.80
2022-09-28T11:25:08.338Z,12.78
2022-09-28T11:26:08.335Z,12.80
2022-09-28T11:27:08.340Z,12.73
2022-09-28T11:28:08.311Z,12.75
2022-09-28T11:29:08.323Z,12.78
2022-09-28T11:30:08.277Z,12.76
2022-09-28T11:31:08.386Z,12.82
2022-09-28T11:32:11.393Z,12.83
2022-09-28T11:33:08.250Z,12.87
2022-09-28T11:34:08.250Z,12.91
2022-09-28T11:35:08.234Z,12.98
2022-09-28T11:36:08.254Z,12.86
2022-09-28T11:37:08.201Z,12.90
2022-09-28T11:38:08.196Z,12.97
2022-09-28T11:39:08.195Z,13.03
2022-09-28T11:40:08.189Z,13.09
2022-09-28T11:41:08.189Z,13.16
2022-09-28T11:42:09.525Z,13.16
2022-09-28T11:43:08.147Z,13.15
2022-09-28T11:44:08.157Z,13.30
2022-09-28T11:45:08.139Z,13.18
2022-09-28T11:46:08.181Z,13.19
2022-09-28T11:47:08.092Z,13.12
2022-09-28T11:48:08.094Z,13.05
2022-09-28T11:49:08.084Z,13.03
2022-09-28T11:50:08.135Z,12.94
2022-09-28T11:51:08.057Z,12.86
2022-09-28T11:52:08.060Z,12.82
2022-09-28T11:53:08.036Z,12.87
2022-09-28T11:54:08.037Z,12.78
2022-09-28T11:55:08.025Z,12.80
2022-09-28T11:56:08.970Z,12.82
2022-09-28T11:57:08.007Z,12.86
2022-09-28T11:58:08.002Z,12.87
2022-09-28T11:59:07.959Z,12.87
2022-09-28T12:00:07.953Z,12.80
2022-09-28T12:01:07.942Z,12.87
2022-09-28T12:02:08.116Z,12.98
2022-09-28T12:03:08.090Z,12.97
2022-09-28T12:04:08.717Z,12.97
2022-09-28T12:05:07.945Z,12.97
2022-09-28T12:06:07.893Z,13.08
2022-09-28T12:07:07.867Z,13.05
2022-09-28T12:08:07.884Z,13.04
2022-09-28T12:09:09.863Z,13.05
2022-09-28T12:10:07.869Z,13.08
2022-09-28T12:11:07.826Z,13.13
2022-09-28T12:12:07.832Z,12.97
2022-09-28T12:13:07.803Z,13.01
2022-09-28T12:14:07.816Z,13.12
2022-09-28T12:15:07.780Z,13.03
2022-09-28T12:16:27.666Z,13.08
2022-09-28T12:17:08.612Z,13.09
2022-09-28T12:18:07.833Z,13.09
2022-09-28T12:19:07.812Z,13.12
2022-09-28T12:20:07.737Z,13.16
2022-09-28T12:21:07.723Z,13.09
2022-09-28T12:22:07.723Z,13.15
2022-09-28T12:23:07.721Z,13.09
2022-09-28T12:24:07.700Z,13.18
2022-09-28T12:25:07.685Z,13.18
2022-09-28T12:26:07.676Z,13.33
2022-09-28T12:27:07.646Z,13.39
2022-09-28T12:28:07.661Z,13.46
2022-09-28T12:29:07.625Z,13.42
2022-09-28T12:30:07.663Z,13.42
2022-09-28T12:31:07.743Z,13.56
2022-09-28T12:32:07.605Z,13.54
2022-09-28T12:33:07.589Z,13.65
2022-09-28T12:34:07.588Z,13.56
2022-09-28T12:35:07.564Z,13.71
2022-09-28T12:36:07.574Z,13.62
2022-09-28T12:37:07.559Z,13.59
2022-09-28T12:38:07.532Z,13.60
2022-09-28T12:39:19.018Z,13.63
2022-09-28T12:40:08.561Z,13.68
2022-09-28T12:41:07.578Z,13.75
2022-09-28T12:42:07.502Z,13.72
2022-09-28T12:43:07.506Z,13.79
2022-09-28T12:44:07.460Z,13.92
2022-09-28T12:45:07.466Z,13.89
2022-09-28T12:46:12.116Z,13.89
2022-09-28T12:47:07.540Z,13.72
2022-09-28T12:48:07.417Z,13.68
2022-09-28T12:50:37.443Z,13.68
2022-09-28T12:51:08.384Z,13.74
2022-09-28T12:52:07.372Z,13.59
2022-09-28T12:53:07.364Z,13.56
2022-09-28T12:54:07.367Z,13.56
2022-09-28T12:55:07.371Z,13.47